Time;durP1;ratioP1;P1;durP2;ratioP2;P2;SDS_P1;SDS_P2;PMS_P1;PMS_P2;Temp;Humidity;BMP_temperature;BMP_pressure;BME280_temperature;BME280_humidity;BME280_pressure;Samples;Min_cycle;Max_cycle;Signal;HPM_P1;HPM_P2
2022/10/11 00:00:29;;;;;;;9.60;6.93;;;12.00;1.00;;;;;;5050393;28;20177;-55
2022/10/11 00:02:55;;;;;;;10.30;7.40;;;11.90;1.00;;;;;;5046373;28;20496;-54
2022/10/11 00:05:21;;;;;;;7.50;6.70;;;11.90;1.00;;;;;;5047548;28;20907;-55
2022/10/11 00:07:46;;;;;;;9.53;7.07;;;12.00;1.00;;;;;;5045683;28;20452;-55
2022/10/11 00:10:12;;;;;;;8.17;7.13;;;12.00;1.00;;;;;;5044633;28;20195;-55
2022/10/11 00:12:37;;;;;;;8.47;7.27;;;12.00;1.00;;;;;;5051236;28;20729;-55
2022/10/11 00:15:04;;;;;;;7.90;6.40;;;11.90;1.00;;;;;;5052927;28;20268;-53
2022/10/11 00:17:31;;;;;;;11.33;7.57;;;12.00;1.00;;;;;;5043083;28;20191;-53
2022/10/11 00:19:56;;;;;;;7.60;6.90;;;12.10;1.00;;;;;;5043996;28;20448;-53
2022/10/11 00:22:22;;;;;;;7.13;6.43;;;12.30;1.00;;;;;;5044052;28;20978;-55
2022/10/11 00:24:47;;;;;;;6.60;5.90;;;12.40;1.00;;;;;;5042772;28;22370;-55
2022/10/11 00:27:13;;;;;;;8.23;6.03;;;12.40;1.00;;;;;;5042352;28;20207;-53
2022/10/11 00:29:39;;;;;;;10.63;6.63;;;12.50;1.00;;;;;;5043554;28;20204;-55
2022/10/11 00:32:04;;;;;;;8.17;6.20;;;12.70;1.00;;;;;;5043682;28;20197;-55
2022/10/11 00:34:30;;;;;;;9.80;6.80;;;12.70;1.00;;;;;;5042990;28;20222;-54
2022/10/11 00:36:56;;;;;;;9.70;6.30;;;12.90;1.00;;;;;;5042215;28;20191;-53
2022/10/11 00:39:22;;;;;;;7.17;5.63;;;12.80;1.00;;;;;;5045237;28;20265;-53
2022/10/11 00:41:48;;;;;;;7.30;6.10;;;12.80;1.00;;;;;;5042326;28;20210;-53
2022/10/11 00:44:22;;;;;;;11.20;7.10;;;12.80;1.00;;;;;;5046113;28;20223;-52
2022/10/11 00:46:59;;;;;;;10.17;6.47;;;12.90;1.00;;;;;;5045174;28;20438;-55
2022/10/11 00:49:47;;;;;;;11.50;6.70;;;12.90;1.00;;;;;;5048534;28;20425;-54
2022/10/11 00:52:30;;;;;;;8.80;6.50;;;13.00;1.00;;;;;;5042821;28;20438;-52
2022/10/11 00:54:58;;;;;;;6.77;6.10;;;12.90;1.00;;;;;;5045326;28;20524;-56
2022/10/11 00:57:28;;;;;;;8.60;7.03;;;12.90;1.00;;;;;;5043849;28;20436;-55
2022/10/11 00:59:55;;;;;;;7.50;6.70;;;12.90;1.00;;;;;;5045559;28;20445;-55
2022/10/11 01:02:22;;;;;;;7.83;6.37;;;12.90;1.00;;;;;;5048547;28;20433;-54
2022/10/11 01:04:48;;;;;;;7.80;6.83;;;12.90;1.00;;;;;;5048286;28;20480;-55
2022/10/11 01:07:15;;;;;;;6.90;6.20;;;12.90;1.00;;;;;;5045903;28;20457;-56
2022/10/11 01:09:41;;;;;;;8.47;6.17;;;12.90;1.00;;;;;;5044366;28;20433;-54
2022/10/11 01:12:20;;;;;;;7.67;6.17;;;13.00;1.00;;;;;;5048685;28;20462;-56
2022/10/11 01:15:20;;;;;;;8.57;7.10;;;13.00;1.00;;;;;;5038538;28;20231;-56
2022/10/11 01:18:17;;;;;;;10.03;8.23;;;13.10;1.00;;;;;;5042972;28;20451;-53
2022/10/11 01:20:51;;;;;;;8.93;5.70;;;13.10;1.00;;;;;;5045165;28;20928;-53
2022/10/11 01:24:06;;;;;;;11.33;6.80;;;13.20;1.00;;;;;;5042130;28;20452;-54
2022/10/11 01:27:09;;;;;;;6.37;5.77;;;13.30;1.00;;;;;;5042640;28;20444;-55
2022/10/11 01:30:13;;;;;;;7.20;6.17;;;13.40;1.00;;;;;;5038135;28;20459;-55
2022/10/11 01:33:06;;;;;;;7.47;6.10;;;13.40;1.00;;;;;;5043283;28;20815;-53
2022/10/11 01:35:56;;;;;;;7.57;6.67;;;13.50;1.00;;;;;;5045150;28;20505;-55
2022/10/11 01:38:31;;;;;;;8.40;5.80;;;13.60;1.00;;;;;;5047673;28;20478;-56
2022/10/11 01:41:08;;;;;;;10.30;6.20;;;13.60;1.00;;;;;;5045526;28;20485;-56
2022/10/11 01:43:35;;;;;;;11.20;6.20;;;13.70;1.00;;;;;;5043692;28;21048;-53
2022/10/11 01:46:02;;;;;;;7.90;6.17;;;16.10;1.00;;;;;;5046832;28;20794;-51
2022/10/11 01:48:28;;;;;;;8.77;6.40;;;13.80;1.00;;;;;;5041343;28;20890;-55
2022/10/11 01:50:58;;;;;;;7.33;6.53;;;13.80;1.00;;;;;;5046021;28;20452;-53
2022/10/11 01:53:45;;;;;;;8.70;7.40;;;13.70;1.00;;;;;;5047418;28;20203;-55
2022/10/11 01:56:16;;;;;;;7.00;6.30;;;13.80;1.00;;;;;;5045323;28;20437;-56
2022/10/11 01:59:00;;;;;;;8.87;6.53;;;13.90;1.00;;;;;;5044926;28;20854;-55
2022/10/11 02:01:40;;;;;;;11.90;6.70;;;13.90;1.00;;;;;;5044403;28;20421;-54
2022/10/11 02:04:17;;;;;;;9.27;6.80;;;14.00;1.00;;;;;;5047935;28;20538;-55
2022/10/11 02:07:22;;;;;;;7.20;6.50;;;14.10;1.00;;;;;;5040386;28;20443;-55
2022/10/11 02:09:57;;;;;;;9.23;6.87;;;14.10;1.00;;;;;;5040751;28;21054;-52
2022/10/11 02:12:30;;;;;;;10.40;7.20;;;14.20;1.00;;;;;;5040723;28;20439;-53
2022/10/11 02:14:57;;;;;;;16.10;7.30;;;14.20;1.00;;;;;;5040524;28;20475;-55
2022/10/11 02:17:30;;;;;;;9.93;7.70;;;14.20;1.00;;;;;;5043407;28;21063;-56
2022/10/11 02:19:58;;;;;;;13.03;7.00;;;14.40;1.00;;;;;;5040578;28;20922;-54
2022/10/11 02:22:35;;;;;;;10.80;7.83;;;14.40;1.00;;;;;;5043922;28;20409;-54
2022/10/11 02:25:06;;;;;;;10.83;7.37;;;14.30;1.00;;;;;;5040237;28;21479;-53
2022/10/11 02:27:36;;;;;;;9.20;7.00;;;14.30;1.00;;;;;;5042596;28;20440;-53
2022/10/11 02:30:06;;;;;;;8.00;6.90;;;14.40;1.00;;;;;;5035940;28;20441;-56
2022/10/11 02:32:33;;;;;;;8.50;7.23;;;14.60;1.00;;;;;;5039535;28;20815;-53
2022/10/11 02:35:00;;;;;;;9.67;7.03;;;14.60;1.00;;;;;;5041464;28;20570;-55
2022/10/11 02:37:44;;;;;;;10.53;6.50;;;14.50;1.00;;;;;;5040689;28;20944;-53
2022/10/11 02:40:17;;;;;;;8.50;6.67;;;14.60;1.00;;;;;;5043558;28;20464;-53
2022/10/11 02:42:48;;;;;;;8.90;6.43;;;14.70;1.00;;;;;;5046187;28;20504;-54
2022/10/11 02:45:30;;;;;;;10.13;6.93;;;14.70;1.00;;;;;;5042893;28;21023;-55
2022/10/11 02:47:56;;;;;;;8.03;5.70;;;14.50;1.00;;;;;;5042338;28;20447;-55
2022/10/11 02:50:22;;;;;;;7.53;6.50;;;14.60;1.00;;;;;;5045894;28;20482;-55
2022/10/11 02:52:48;;;;;;;7.10;6.33;;;14.70;1.00;;;;;;5043336;28;20500;-53
2022/10/11 02:55:13;;;;;;;11.10;6.20;;;14.70;1.00;;;;;;5044531;28;20277;-56
2022/10/11 02:57:39;;;;;;;9.33;6.00;;;14.60;1.00;;;;;;5046715;28;20184;-54
2022/10/11 03:00:05;;;;;;;11.20;6.27;;;14.70;1.00;;;;;;5044536;28;20223;-56
2022/10/11 03:02:31;;;;;;;10.17;5.50;;;14.60;1.00;;;;;;5045806;28;20785;-55
2022/10/11 03:04:56;;;;;;;8.27;6.07;;;14.60;1.00;;;;;;5050048;28;20439;-55
2022/10/11 03:07:22;;;;;;;10.03;5.40;;;14.50;1.00;;;;;;5041820;28;20234;-56
2022/10/11 03:09:47;;;;;;;6.33;4.43;;;14.50;1.00;;;;;;5047040;28;20201;-56
2022/10/11 03:12:13;;;;;;;7.00;4.57;;;14.60;1.00;;;;;;5050366;28;20706;-53
2022/10/11 03:14:38;;;;;;;7.60;5.00;;;14.50;1.00;;;;;;5050624;28;20665;-56
2022/10/11 03:17:04;;;;;;;5.10;4.60;;;14.40;1.00;;;;;;5057155;28;20273;-53
2022/10/11 03:19:30;;;;;;;7.43;4.90;;;14.40;1.00;;;;;;5046479;28;20205;-54
2022/10/11 03:21:55;;;;;;;8.67;4.10;;;14.40;1.00;;;;;;5057365;28;20309;-54
2022/10/11 03:24:21;;;;;;;8.27;4.83;;;14.40;1.00;;;;;;5050310;28;20181;-53
2022/10/11 03:26:47;;;;;;;6.10;3.70;;;14.50;1.00;;;;;;5045356;28;20935;-55
2022/10/11 03:29:12;;;;;;;5.70;3.37;;;14.40;1.00;;;;;;5052059;28;20221;-53
2022/10/11 03:31:38;;;;;;;5.60;3.63;;;14.30;1.00;;;;;;5045651;28;20693;-54
2022/10/11 03:34:03;;;;;;;6.50;3.10;;;14.30;1.00;;;;;;5049527;28;20571;-55
2022/10/11 03:36:29;;;;;;;5.10;3.10;;;14.40;1.00;;;;;;5045029;28;20191;-56
2022/10/11 03:38:54;;;;;;;6.70;2.60;;;14.20;1.00;;;;;;5051183;28;20216;-55
2022/10/11 03:41:20;;;;;;;6.23;2.80;;;14.10;1.00;;;;;;5044419;28;20188;-55
2022/10/11 03:43:45;;;;;;;4.67;2.63;;;14.10;1.00;;;;;;5048981;28;20330;-55
2022/10/11 03:46:11;;;;;;;7.30;2.20;;;14.00;1.00;;;;;;5047718;28;20192;-54
2022/10/11 03:48:37;;;;;;;11.43;3.00;;;14.00;1.00;;;;;;5048676;28;20230;-54
2022/10/11 03:51:02;;;;;;;5.00;2.07;;;13.90;1.00;;;;;;5047717;28;20197;-52
2022/10/11 03:53:28;;;;;;;6.43;2.30;;;13.90;1.00;;;;;;5050376;28;20223;-54
2022/10/11 03:55:54;;;;;;;5.53;1.63;;;13.90;1.00;;;;;;5047277;28;20613;-55
2022/10/11 03:58:22;;;;;;;4.80;2.17;;;13.40;1.00;;;;;;5047113;28;20193;-56
2022/10/11 04:00:48;;;;;;;5.40;2.50;;;13.90;1.00;;;;;;5048944;28;20446;-55
2022/10/11 04:03:14;;;;;;;7.30;1.90;;;13.90;1.00;;;;;;5048560;28;20602;-53
2022/10/11 04:05:40;;;;;;;6.40;1.80;;;;;;;;;;5050279;28;20523;-57
2022/10/11 04:08:05;;;;;;;4.13;1.90;;;13.80;1.00;;;;;;5050434;28;20191;-57
2022/10/11 04:10:31;;;;;;;3.73;2.30;;;13.80;1.00;;;;;;5050913;28;20426;-55
2022/10/11 04:12:57;;;;;;;3.20;1.70;;;13.70;1.00;;;;;;5050688;28;20187;-54
2022/10/11 04:15:22;;;;;;;7.17;1.73;;;13.70;1.00;;;;;;5050078;28;20184;-54
2022/10/11 04:17:48;;;;;;;8.27;2.10;;;13.80;1.00;;;;;;5048949;28;20185;-53
2022/10/11 04:20:14;;;;;;;7.67;1.70;;;13.80;1.00;;;;;;5051679;28;20194;-56
2022/10/11 04:22:40;;;;;;;4.60;1.87;;;13.80;1.00;;;;;;5052769;28;20268;-55
2022/10/11 04:25:06;;;;;;;6.90;1.97;;;13.80;1.00;;;;;;5050708;28;20559;-56
2022/10/11 04:27:32;;;;;;;7.83;1.93;;;13.80;1.00;;;;;;5049465;28;20266;-54
2022/10/11 04:29:58;;;;;;;5.93;2.13;;;13.90;1.00;;;;;;5047475;28;21072;-55
2022/10/11 04:32:23;;;;;;;5.20;1.67;;;13.80;1.00;;;;;;5052537;28;20178;-55
2022/10/11 04:34:50;;;;;;;11.87;3.87;;;13.80;1.00;;;;;;5051458;28;20210;-53
2022/10/11 04:37:16;;;;;;;6.83;1.73;;;13.60;1.00;;;;;;5052653;28;20189;-54
2022/10/11 04:39:41;;;;;;;4.77;1.83;;;13.70;1.00;;;;;;5050047;28;20451;-55
2022/10/11 04:42:07;;;;;;;7.03;3.30;;;13.60;1.00;;;;;;5049483;28;20417;-56
2022/10/11 04:44:32;;;;;;;10.07;2.70;;;13.60;1.00;;;;;;5049123;28;20235;-54
2022/10/11 04:46:58;;;;;;;6.10;2.03;;;13.70;1.00;;;;;;5050434;28;20256;-53
2022/10/11 04:49:23;;;;;;;4.67;2.00;;;13.80;1.00;;;;;;5047668;28;20199;-57
2022/10/11 04:51:49;;;;;;;6.77;2.13;;;13.70;1.00;;;;;;5048987;28;20198;-56
2022/10/11 04:54:15;;;;;;;9.87;2.20;;;13.60;1.00;;;;;;5045776;28;20295;-57
2022/10/11 04:56:40;;;;;;;9.77;2.37;;;13.50;1.00;;;;;;5049567;28;20199;-55
2022/10/11 04:59:06;;;;;;;8.67;2.20;;;13.40;1.00;;;;;;5050009;28;20215;-56
2022/10/11 05:01:32;;;;;;;4.23;2.10;;;13.40;1.00;;;;;;5052315;28;20195;-57
2022/10/11 05:03:57;;;;;;;7.20;2.17;;;13.40;1.00;;;;;;5050992;28;20601;-56
2022/10/11 05:06:23;;;;;;;12.37;2.40;;;13.30;1.00;;;;;;5050812;28;20282;-56
2022/10/11 05:08:49;;;;;;;11.93;2.07;;;13.20;1.00;;;;;;5051591;28;20191;-54
2022/10/11 05:11:15;;;;;;;5.77;2.30;;;13.20;1.00;;;;;;5051881;28;20237;-54
2022/10/11 05:13:42;;;;;;;3.73;2.00;;;13.00;1.00;;;;;;5046124;28;21003;-56
2022/10/11 05:16:07;;;;;;;6.17;2.50;;;13.00;1.00;;;;;;5045568;28;20534;-55
2022/10/11 05:18:33;;;;;;;6.50;1.87;;;13.00;1.00;;;;;;5051057;28;20997;-54
2022/10/11 05:21:20;;;;;;;4.40;2.27;;;12.90;1.00;;;;;;5049155;28;20191;-55
2022/10/11 05:23:48;;;;;;;5.43;2.60;;;12.80;1.00;;;;;;5045436;28;20202;-54
2022/10/11 05:26:15;;;;;;;4.77;2.27;;;12.80;1.00;;;;;;5049288;28;20488;-56
2022/10/11 05:28:40;;;;;;;6.40;2.50;;;12.70;1.00;;;;;;5047811;28;20834;-53
2022/10/11 05:31:06;;;;;;;8.30;2.60;;;12.70;1.00;;;;;;5049451;28;20451;-55
2022/10/11 05:33:32;;;;;;;12.40;3.03;;;12.70;1.00;;;;;;5047146;28;20225;-55
2022/10/11 05:35:59;;;;;;;11.17;2.93;;;12.60;1.00;;;;;;5048445;28;20413;-57
2022/10/11 05:38:25;;;;;;;5.13;2.50;;;12.60;1.00;;;;;;5049830;28;20435;-55
2022/10/11 05:40:51;;;;;;;5.83;2.43;;;12.50;1.00;;;;;;5048799;28;20416;-53
2022/10/11 05:43:16;;;;;;;9.80;2.60;;;12.50;1.00;;;;;;5048891;28;20221;-56
2022/10/11 05:45:43;;;;;;;5.03;2.30;;;12.60;1.00;;;;;;5049915;28;20495;-56
2022/10/11 05:48:09;;;;;;;4.40;2.60;;;12.50;1.00;;;;;;5051036;28;20442;-55
2022/10/11 05:50:36;;;;;;;6.40;2.57;;;12.50;1.00;;;;;;5049547;28;20458;-55
2022/10/11 05:53:02;;;;;;;10.33;2.97;;;12.50;1.00;;;;;;5049078;28;20420;-56
2022/10/11 05:55:28;;;;;;;6.77;3.00;;;12.50;1.00;;;;;;5048179;28;20458;-56
2022/10/11 05:57:57;;;;;;;9.07;3.27;;;12.40;1.00;;;;;;5050389;28;20453;-56
2022/10/11 06:00:23;;;;;;;11.50;2.80;;;12.40;1.00;;;;;;5046975;28;20193;-53
2022/10/11 06:02:48;;;;;;;6.90;2.73;;;12.30;1.00;;;;;;5049411;28;20810;-52
2022/10/11 06:05:15;;;;;;;7.20;3.50;;;12.20;1.00;;;;;;5048234;28;20457;-55
2022/10/11 06:07:41;;;;;;;8.97;3.07;;;12.20;1.00;;;;;;5049072;28;20210;-56
2022/10/11 06:10:07;;;;;;;7.43;2.47;;;12.20;1.00;;;;;;5049226;28;20790;-55
2022/10/11 06:12:33;;;;;;;5.07;2.83;;;12.20;1.00;;;;;;5047023;28;20449;-54
2022/10/11 06:14:59;;;;;;;10.93;3.73;;;12.20;1.00;;;;;;5049413;28;20521;-55
2022/10/11 06:17:24;;;;;;;14.53;3.93;;;12.20;1.00;;;;;;5049277;28;20192;-55
2022/10/11 06:19:50;;;;;;;11.70;3.47;;;12.20;1.00;;;;;;5049664;28;20191;-54
2022/10/11 06:22:16;;;;;;;8.97;2.97;;;12.10;1.00;;;;;;5045252;28;20199;-56
2022/10/11 06:24:42;;;;;;;8.30;3.00;;;12.20;1.00;;;;;;5044447;28;20653;-54
2022/10/11 06:27:08;;;;;;;9.23;4.10;;;12.30;1.00;;;;;;5048562;28;20478;-56
2022/10/11 06:29:34;;;;;;;8.87;3.00;;;12.30;1.00;;;;;;5047511;28;20217;-55
2022/10/11 06:32:00;;;;;;;12.97;3.63;;;12.30;1.00;;;;;;5049434;28;20187;-55
2022/10/11 06:34:26;;;;;;;7.73;3.33;;;12.30;1.00;;;;;;5048631;28;20490;-55
2022/10/11 06:36:52;;;;;;;8.87;3.43;;;12.20;1.00;;;;;;5049986;28;20630;-56
2022/10/11 06:39:18;;;;;;;6.03;3.00;;;;;;;;;;5048238;28;20515;-54
2022/10/11 06:41:44;;;;;;;8.03;3.03;;;12.30;1.00;;;;;;5049298;28;20183;-54
2022/10/11 06:44:11;;;;;;;11.17;3.60;;;12.50;1.00;;;;;;5042112;28;20448;-55
2022/10/11 06:46:37;;;;;;;7.43;4.13;;;12.60;1.00;;;;;;5048660;28;20224;-56
2022/10/11 06:49:03;;;;;;;10.60;4.20;;;12.60;1.00;;;;;;5046503;28;20451;-55
2022/10/11 06:51:29;;;;;;;9.83;3.63;;;12.60;1.00;;;;;;5047221;28;20591;-54
2022/10/11 06:53:56;;;;;;;12.03;4.00;;;12.80;1.00;;;;;;5046728;28;20322;-53
2022/10/11 06:56:25;;;;;;;7.23;3.20;;;12.90;1.00;;;;;;5049040;28;20446;-55
2022/10/11 06:58:52;;;;;;;5.67;3.30;;;13.00;1.00;;;;;;5051083;28;20432;-56
2022/10/11 07:01:20;;;;;;;7.17;3.50;;;13.00;1.00;;;;;;5051491;28;20477;-55
2022/10/11 07:03:46;;;;;;;12.83;3.60;;;13.10;1.00;;;;;;5048615;28;20626;-54
2022/10/11 07:06:14;;;;;;;8.33;3.13;;;13.10;1.00;;;;;;5049790;28;20446;-55
2022/10/11 07:08:40;;;;;;;10.53;3.93;;;13.10;1.00;;;;;;5045883;28;20450;-56
2022/10/11 07:11:14;;;;;;;5.43;3.07;;;13.30;1.00;;;;;;5045428;28;20951;-54
2022/10/11 07:13:40;;;;;;;9.30;2.93;;;13.30;1.00;;;;;;5044428;28;20206;-55
2022/10/11 07:16:11;;;;;;;13.73;3.57;;;13.30;1.00;;;;;;5048926;28;20915;-55
2022/10/11 07:18:37;;;;;;;7.47;3.73;;;13.50;1.00;;;;;;5045827;28;20960;-55
2022/10/11 07:21:05;;;;;;;10.43;3.60;;;14.00;1.00;;;;;;5049998;28;20437;-56
2022/10/11 07:23:30;;;;;;;5.10;3.30;;;14.00;1.00;;;;;;5047361;28;20577;-55
2022/10/11 07:25:56;;;;;;;5.90;3.70;;;14.00;1.00;;;;;;5048717;28;20449;-55
2022/10/11 07:28:22;;;;;;;4.77;2.83;;;14.00;1.00;;;;;;5043576;28;20205;-54
2022/10/11 07:30:48;;;;;;;9.57;4.00;;;13.80;1.00;;;;;;5048532;28;20185;-56
2022/10/11 07:33:14;;;;;;;8.33;3.70;;;13.70;1.00;;;;;;5047302;28;20222;-54
2022/10/11 07:35:39;;;;;;;11.00;5.80;;;13.80;1.00;;;;;;5046921;28;20737;-54
2022/10/11 07:38:06;;;;;;;20.67;4.20;;;13.80;1.00;;;;;;5046502;28;20661;-56
2022/10/11 07:40:32;;;;;;;13.03;3.70;;;14.10;1.00;;;;;;5038229;28;20181;-55
2022/10/11 07:42:58;;;;;;;10.30;4.70;;;14.00;1.00;;;;;;5044884;28;20447;-56
2022/10/11 07:45:27;;;;;;;10.87;3.40;;;14.00;1.00;;;;;;5049534;28;20414;-56
2022/10/11 07:47:57;;;;;;;8.90;3.40;;;14.10;1.00;;;;;;5047382;28;20451;-56
2022/10/11 07:50:23;;;;;;;13.07;3.77;;;14.10;1.00;;;;;;5048499;28;20449;-54
2022/10/11 07:52:49;;;;;;;10.93;4.67;;;14.00;1.00;;;;;;5048298;28;20454;-54
2022/10/11 07:55:15;;;;;;;9.10;3.40;;;13.90;1.00;;;;;;5053440;28;20568;-56
2022/10/11 07:57:40;;;;;;;8.73;3.60;;;14.00;1.00;;;;;;5048969;28;20189;-54
2022/10/11 08:00:07;;;;;;;14.93;3.47;;;14.10;1.00;;;;;;5049122;28;20940;-54
2022/10/11 08:02:33;;;;;;;11.20;3.30;;;;;;;;;;5051887;28;20603;-55
2022/10/11 08:04:58;;;;;;;11.43;3.67;;;14.40;1.00;;;;;;5052649;28;20448;-55
2022/10/11 08:07:24;;;;;;;10.60;3.30;;;14.60;1.00;;;;;;5051550;28;20447;-53
2022/10/11 08:09:50;;;;;;;11.93;3.50;;;14.90;1.00;;;;;;5052862;28;20186;-53
2022/10/11 08:12:15;;;;;;;10.93;3.20;;;14.80;1.00;;;;;;5050657;28;20198;-56
2022/10/11 08:14:41;;;;;;;10.50;3.77;;;14.30;1.00;;;;;;5045500;28;20215;-55
2022/10/11 08:17:07;;;;;;;7.17;3.60;;;14.60;1.00;;;;;;5045208;28;20334;-55
2022/10/11 08:19:33;;;;;;;15.07;3.60;;;14.90;1.00;;;;;;5050370;28;20184;-56
2022/10/11 08:21:59;;;;;;;12.97;3.37;;;15.10;1.00;;;;;;5052896;28;20432;-53
2022/10/11 08:24:24;;;;;;;8.20;3.00;;;15.10;1.00;;;;;;5052647;28;20203;-54
2022/10/11 08:26:51;;;;;;;12.90;3.57;;;15.10;1.00;;;;;;5052501;28;20439;-56
2022/10/11 08:29:17;;;;;;;15.90;4.00;;;15.10;1.00;;;;;;5052831;28;20542;-54
2022/10/11 08:31:43;;;;;;;12.87;3.37;;;15.00;1.00;;;;;;5052709;28;20442;-56
2022/10/11 08:34:10;;;;;;;7.20;3.57;;;15.40;1.00;;;;;;5052446;28;20477;-53
2022/10/11 08:36:36;;;;;;;9.93;2.90;;;15.40;1.00;;;;;;5058074;28;20196;-56
2022/10/11 08:39:03;;;;;;;6.30;2.80;;;15.60;1.00;;;;;;5072355;28;20919;-54
2022/10/11 08:41:35;;;;;;;12.90;3.40;;;15.50;1.00;;;;;;5071350;28;20913;-52
2022/10/11 08:44:34;;;;;;;12.70;3.57;;;15.70;1.00;;;;;;5051343;28;20533;-57
2022/10/11 08:47:26;;;;;;;10.20;3.00;;;15.50;1.00;;;;;;5026922;28;20460;-54
2022/10/11 08:49:53;;;;;;;11.77;2.80;;;15.60;1.00;;;;;;5051691;28;20449;-55
2022/10/11 08:52:32;;;;;;;10.50;3.93;;;15.50;1.00;;;;;;5051717;28;20427;-55
2022/10/11 08:55:04;;;;;;;9.07;3.30;;;15.50;1.00;;;;;;5052036;28;20465;-55
2022/10/11 08:57:34;;;;;;;9.50;3.10;;;15.60;1.00;;;;;;5052080;28;20448;-55
2022/10/11 09:00:05;;;;;;;11.90;3.03;;;15.70;1.00;;;;;;5051789;28;20410;-55
2022/10/11 09:02:34;;;;;;;8.67;3.43;;;15.90;1.00;;;;;;5051979;28;20434;-55
2022/10/11 09:05:01;;;;;;;9.10;2.40;;;16.40;1.00;;;;;;5051832;28;20404;-56
2022/10/11 09:07:49;;;;;;;8.87;3.37;;;16.40;1.00;;;;;;5051830;28;20467;-53
2022/10/11 09:10:32;;;;;;;13.77;4.37;;;16.30;1.00;;;;;;5051445;28;20429;-55
2022/10/11 09:13:03;;;;;;;14.23;6.63;;;16.60;1.00;;;;;;5051889;28;20428;-55
2022/10/11 09:15:59;;;;;;;7.00;2.40;;;16.60;1.00;;;;;;5051552;28;20483;-55
2022/10/11 09:18:24;;;;;;;15.63;3.60;;;16.50;1.00;;;;;;5052975;28;20516;-56
2022/10/11 09:21:07;;;;;;;7.57;3.00;;;16.50;1.00;;;;;;5051852;28;20492;-55
2022/10/11 09:23:51;;;;;;;8.53;2.37;;;16.70;1.00;;;;;;5051365;28;20186;-54
2022/10/11 09:26:24;;;;;;;15.10;3.33;;;17.40;1.00;;;;;;5051511;28;20447;-54
2022/10/11 09:29:10;;;;;;;7.10;2.30;;;17.70;1.00;;;;;;5051594;28;20447;-52
2022/10/11 09:31:35;;;;;;;9.57;3.17;;;17.80;1.00;;;;;;5050469;28;20927;-57
2022/10/11 09:34:13;;;;;;;8.07;2.00;;;17.70;1.00;;;;;;5046731;28;20494;-53
2022/10/11 09:36:56;;;;;;;4.80;2.30;;;17.80;1.00;;;;;;5049913;28;20194;-56
2022/10/11 09:39:31;;;;;;;11.10;2.60;;;17.60;1.00;;;;;;5051208;28;20475;-57
2022/10/11 09:42:00;;;;;;;8.40;3.10;;;17.60;1.00;;;;;;5051109;28;20442;-53
2022/10/11 09:44:28;;;;;;;11.23;3.00;;;17.80;1.00;;;;;;5050859;28;20508;-56
2022/10/11 09:46:55;;;;;;;13.80;3.10;;;18.10;1.00;;;;;;5051086;28;20455;-56
2022/10/11 09:49:28;;;;;;;9.13;3.23;;;18.40;1.00;;;;;;5049525;28;20501;-56
2022/10/11 09:51:56;;;;;;;6.93;1.97;;;18.70;1.00;;;;;;5049225;28;20436;-55
2022/10/11 09:55:02;;;;;;;7.03;2.10;;;18.80;1.00;;;;;;5051009;28;20502;-55
2022/10/11 09:57:30;;;;;;;5.80;2.30;;;18.40;1.00;;;;;;5049644;28;20410;-55
2022/10/11 10:00:18;;;;;;;9.23;2.77;;;18.10;1.00;;;;;;5050480;28;20434;-54
2022/10/11 10:02:46;;;;;;;7.77;1.83;;;17.70;1.00;;;;;;5050626;28;20453;-56
2022/10/11 10:05:24;;;;;;;7.00;1.97;;;17.60;1.00;;;;;;5051127;28;20524;-55
2022/10/11 10:08:21;;;;;;;8.53;3.47;;;17.70;1.00;;;;;;5050659;28;20424;-55
2022/10/11 10:11:08;;;;;;;6.80;2.03;;;17.80;1.00;;;;;;5049434;28;20969;-56
2022/10/11 10:13:54;;;;;;;4.30;1.47;;;18.00;1.00;;;;;;5050116;28;20824;-55
2022/10/11 10:16:26;;;;;;;7.20;2.90;;;18.40;1.00;;;;;;5050505;28;20521;-52
2022/10/11 10:19:02;;;;;;;6.90;1.60;;;18.60;1.00;;;;;;5050200;28;20495;-55
2022/10/11 10:21:34;;;;;;;8.57;1.67;;;18.90;1.00;;;;;;5050701;28;20423;-53
2022/10/11 10:24:06;;;;;;;6.80;2.40;;;19.20;1.00;;;;;;5048209;28;20483;-53
2022/10/11 10:26:32;;;;;;;6.50;1.90;;;19.40;1.00;;;;;;5050605;28;21283;-55
2022/10/11 10:29:15;;;;;;;4.13;1.80;;;19.10;1.00;;;;;;5052472;28;20449;-56
2022/10/11 10:31:47;;;;;;;6.10;2.23;;;18.80;1.00;;;;;;5052806;28;20478;-54
2022/10/11 10:34:35;;;;;;;5.07;1.80;;;18.80;1.00;;;;;;5050056;28;20903;-54
2022/10/11 10:37:20;;;;;;;5.83;1.63;;;19.00;1.00;;;;;;5067454;28;20488;-56
2022/10/11 10:40:04;;;;;;;11.40;2.67;;;18.80;1.00;;;;;;5070253;28;20412;-53
2022/10/11 10:42:29;;;;;;;6.60;2.60;;;18.70;1.00;;;;;;5070445;28;20487;-56
2022/10/11 10:44:57;;;;;;;4.90;1.87;;;17.80;1.00;;;;;;5050833;28;20599;-54
2022/10/11 10:47:43;;;;;;;4.73;1.70;;;17.80;1.00;;;;;;5070270;28;20188;-55
2022/10/11 10:50:17;;;;;;;7.77;1.60;;;18.10;1.00;;;;;;5053889;28;20426;-56
2022/10/11 10:53:11;;;;;;;8.83;2.33;;;18.00;1.00;;;;;;5058080;28;20434;-54
2022/10/11 10:55:41;;;;;;;6.20;2.40;;;17.70;1.00;;;;;;5070330;28;21114;-57
2022/10/11 10:58:22;;;;;;;5.30;1.53;;;17.40;1.00;;;;;;5069802;28;20407;-55
2022/10/11 11:00:54;;;;;;;5.13;1.73;;;17.10;1.00;;;;;;5070101;28;20417;-57
2022/10/11 11:03:28;;;;;;;4.90;1.67;;;17.00;1.00;;;;;;5070094;28;20415;-56
2022/10/11 11:06:01;;;;;;;8.17;2.90;;;17.10;1.00;;;;;;5070154;28;20440;-54
2022/10/11 11:08:58;;;;;;;5.00;2.00;;;17.30;1.00;;;;;;5070157;28;20414;-52
2022/10/11 11:11:50;;;;;;;4.47;1.37;;;17.80;1.00;;;;;;5049699;28;20414;-55
2022/10/11 11:14:50;;;;;;;5.13;1.53;;;18.20;1.00;;;;;;5049497;28;20471;-56
2022/10/11 11:17:52;;;;;;;6.20;1.30;;;18.30;1.00;;;;;;5049774;28;20524;-55
2022/10/11 11:20:36;;;;;;;4.57;1.30;;;18.40;1.00;;;;;;5049678;28;20824;-55
2022/10/11 11:23:16;;;;;;;5.00;1.60;;;18.50;1.00;;;;;;5050015;28;20440;-57
2022/10/11 11:25:51;;;;;;;7.53;2.43;;;18.80;1.00;;;;;;5048420;28;20446;-56
2022/10/11 11:28:54;;;;;;;8.93;1.97;;;19.00;1.00;;;;;;5050317;28;20926;-54
2022/10/11 11:31:56;;;;;;;4.23;1.43;;;19.00;1.00;;;;;;5053387;28;20447;-57
2022/10/11 11:34:25;;;;;;;4.33;1.20;;;19.20;1.00;;;;;;5052287;28;20472;-53
2022/10/11 11:37:01;;;;;;;8.30;1.83;;;18.90;1.00;;;;;;5053777;28;20532;-54
2022/10/11 11:39:37;;;;;;;6.87;1.23;;;18.80;1.00;;;;;;5050659;28;20961;-55
2022/10/11 11:42:08;;;;;;;2.90;1.10;;;19.20;1.00;;;;;;5050433;28;20432;-54
2022/10/11 11:44:38;;;;;;;3.90;1.53;;;19.20;1.00;;;;;;5053304;28;20559;-54
2022/10/11 11:47:19;;;;;;;6.07;1.70;;;19.30;1.00;;;;;;5053502;28;20486;-55
2022/10/11 11:50:13;;;;;;;6.90;1.80;;;19.40;1.00;;;;;;5053405;28;20419;-55
2022/10/11 11:52:45;;;;;;;5.57;1.80;;;19.60;1.00;;;;;;5053091;28;20462;-54
2022/10/11 11:55:37;;;;;;;7.10;1.30;;;19.70;1.00;;;;;;5053280;28;20934;-55
2022/10/11 11:58:34;;;;;;;4.33;1.50;;;19.70;1.00;;;;;;5048919;28;20498;-55
2022/10/11 12:01:26;;;;;;;4.10;1.60;;;19.60;1.00;;;;;;5063225;28;20510;-54
2022/10/11 12:04:01;;;;;;;5.90;1.90;;;19.50;1.00;;;;;;5073257;28;20427;-53
2022/10/11 12:06:32;;;;;;;4.93;1.50;;;19.30;1.00;;;;;;5072753;28;20912;-54
2022/10/11 12:09:18;;;;;;;5.20;2.00;;;19.40;1.00;;;;;;5073202;28;20419;-56
2022/10/11 12:11:48;;;;;;;6.33;2.37;;;19.30;1.00;;;;;;5068850;28;20417;-54
2022/10/11 12:14:43;;;;;;;5.53;1.80;;;19.00;1.00;;;;;;5073055;28;20457;-53
2022/10/11 12:17:08;;;;;;;5.10;1.70;;;19.10;1.00;;;;;;5072757;28;20445;-53
2022/10/11 12:19:36;;;;;;;8.10;2.20;;;19.00;1.00;;;;;;5072405;28;20401;-55
2022/10/11 12:22:19;;;;;;;6.20;2.20;;;19.30;1.00;;;;;;5072927;28;20192;-54
2022/10/11 12:25:20;;;;;;;6.47;1.83;;;19.40;1.00;;;;;;5069575;28;20413;-54
2022/10/11 12:27:49;;;;;;;6.47;1.70;;;19.70;1.00;;;;;;5052184;28;20424;-56
2022/10/11 12:30:43;;;;;;;5.73;1.87;;;20.20;1.00;;;;;;5052473;28;20466;-53
2022/10/11 12:33:24;;;;;;;4.10;1.67;;;20.10;1.00;;;;;;5052534;28;20742;-56
2022/10/11 12:35:52;;;;;;;4.87;1.83;;;19.60;1.00;;;;;;5052265;28;20427;-55
2022/10/11 12:38:30;;;;;;;8.77;1.43;;;19.60;1.00;;;;;;5052521;28;20483;-56
2022/10/11 12:40:59;;;;;;;4.50;2.00;;;19.00;1.00;;;;;;5051822;28;20794;-55
2022/10/11 12:43:47;;;;;;;7.37;2.97;;;19.00;1.00;;;;;;5052352;28;20461;-54
2022/10/11 12:46:41;;;;;;;5.33;1.70;;;19.40;1.00;;;;;;5052537;28;20886;-55
2022/10/11 12:49:15;;;;;;;7.00;1.70;;;19.30;1.00;;;;;;5041800;28;20443;-54
2022/10/11 12:52:15;;;;;;;8.93;2.30;;;19.10;1.00;;;;;;5052327;28;20428;-54
2022/10/11 12:55:02;;;;;;;6.30;1.60;;;18.90;1.00;;;;;;5051845;28;20968;-55
2022/10/11 12:58:04;;;;;;;7.13;2.23;;;18.90;1.00;;;;;;5052369;28;20416;-55
2022/10/11 13:00:39;;;;;;;4.70;1.30;;;19.30;1.00;;;;;;5052216;28;20819;-55
2022/10/11 13:03:37;;;;;;;5.13;1.40;;;19.50;1.00;;;;;;5052151;28;20409;-51
2022/10/11 13:06:18;;;;;;;5.13;1.33;;;19.40;1.00;;;;;;5052054;28;20467;-56
2022/10/11 13:08:49;;;;;;;6.80;1.40;;;19.30;1.00;;;;;;5051164;28;20505;-57
2022/10/11 13:11:22;;;;;;;4.43;1.63;;;18.90;1.00;;;;;;5051780;28;20472;-55
2022/10/11 13:14:18;;;;;;;7.40;2.00;;;18.80;1.00;;;;;;5051724;28;20496;-54
2022/10/11 13:17:02;;;;;;;4.87;1.50;;;19.10;1.00;;;;;;5044149;28;20538;-56
2022/10/11 13:19:29;;;;;;;7.70;2.10;;;19.00;1.00;;;;;;5051947;28;20465;-55
2022/10/11 13:22:01;;;;;;;7.43;1.70;;;19.10;1.00;;;;;;5067185;28;20494;-56